createdAt,value
2018-05-24T03:02:38.401Z,25.17
2018-05-24T03:05:06.459Z,28.20
2018-05-24T03:07:34.529Z,24.23
2018-05-24T03:10:02.803Z,26.83
2018-05-24T03:12:30.985Z,20.17
2018-05-24T03:14:59.013Z,19.50
2018-05-24T03:17:27.329Z,24.63
2018-05-24T03:19:55.364Z,27.17
2018-05-24T03:22:23.408Z,25.00
2018-05-24T03:24:51.840Z,21.47
2018-05-24T03:27:19.884Z,25.50
2018-05-24T03:29:48.692Z,23.43
2018-05-24T03:32:16.782Z,16.67
2018-05-24T03:34:44.820Z,28.67
2018-05-24T03:37:12.875Z,20.80
2018-05-24T03:39:40.945Z,16.57
2018-05-24T03:42:08.976Z,16.40
2018-05-24T03:44:37.026Z,19.77
2018-05-24T03:47:05.108Z,17.80
2018-05-24T03:49:33.164Z,21.30
2018-05-24T03:52:01.216Z,22.60
2018-05-24T03:54:30.254Z,15.00
2018-05-24T03:56:59.068Z,15.47
2018-05-24T04:02:52.982Z,12.53
2018-05-24T04:05:21.964Z,15.23
2018-05-24T04:07:50.026Z,15.93
2018-05-24T04:10:18.096Z,14.67
2018-05-24T04:12:46.201Z,14.87
2018-05-24T04:15:15.027Z,20.43
2018-05-24T04:17:43.074Z,13.50
2018-05-24T04:20:11.391Z,15.83
2018-05-24T04:22:39.424Z,13.87
2018-05-24T04:25:07.469Z,14.80
2018-05-24T04:27:36.559Z,13.10
2018-05-24T04:30:05.530Z,13.37
2018-05-24T04:32:33.569Z,11.33
2018-05-24T04:35:01.968Z,11.87
2018-05-24T04:37:30.004Z,12.97
2018-05-24T04:39:58.040Z,12.67
2018-05-24T04:42:26.333Z,10.43
2018-05-24T04:44:54.398Z,12.53
2018-05-24T04:47:22.444Z,10.23
2018-05-24T04:49:50.513Z,10.90
2018-05-24T04:52:18.671Z,11.40
2018-05-24T04:54:46.631Z,12.13
2018-05-24T04:57:14.879Z,10.67
2018-05-24T04:59:43.676Z,8.73
2018-05-24T18:02:41.768Z,9.80
2018-05-24T18:05:09.796Z,7.43
2018-05-24T18:07:38.620Z,8.73
2018-05-24T18:10:06.908Z,7.27
2018-05-24T18:12:34.951Z,8.20
2018-05-24T18:15:02.999Z,6.83
2018-05-24T18:17:31.836Z,7.40
2018-05-24T18:19:59.889Z,9.73
2018-05-24T18:22:27.912Z,10.03
2018-05-24T18:24:56.090Z,7.20
2018-05-24T18:27:24.174Z,5.60
2018-05-24T18:29:52.261Z,8.37
2018-05-24T18:32:21.240Z,7.30
2018-05-24T18:34:50.058Z,6.23
2018-05-24T18:37:18.109Z,9.37
2018-05-24T18:39:46.182Z,9.47
2018-05-24T18:42:14.252Z,5.67
2018-05-24T18:44:43.049Z,7.37
2018-05-24T18:47:11.516Z,6.67
2018-05-24T18:49:39.622Z,10.17
2018-05-24T18:52:07.757Z,7.07
2018-05-24T18:54:36.840Z,9.87
2018-05-24T18:57:04.894Z,10.83
2018-05-24T18:59:32.976Z,9.87
2018-05-24T19:02:01.365Z,9.17
2018-05-24T19:04:29.412Z,7.57
2018-05-24T19:06:57.463Z,8.63
2018-05-24T19:09:25.539Z,10.80
2018-05-24T19:11:53.602Z,6.47
2018-05-24T19:14:21.672Z,8.67
2018-05-24T19:16:50.495Z,8.27
2018-05-24T19:19:18.625Z,9.67
2018-05-24T19:21:46.726Z,7.40
2018-05-24T19:24:14.797Z,9.93
2018-05-24T19:26:42.914Z,7.57
2018-05-24T19:29:11.745Z,12.13
2018-05-24T19:31:40.033Z,6.40
2018-05-24T19:34:08.111Z,8.53
2018-05-24T19:36:36.164Z,9.40
2018-05-24T19:39:05.174Z,6.23
2018-05-24T19:41:33.246Z,10.37
2018-05-24T19:44:01.301Z,10.10
2018-05-24T19:46:29.503Z,7.67
2018-05-24T19:48:57.548Z,11.17
2018-05-24T19:51:25.630Z,7.67
2018-05-24T19:53:53.947Z,5.17
2018-05-24T19:56:21.989Z,7.53
2018-05-24T19:58:50.038Z,7.07
